createdAt,value
2023-02-11T00:04:50.062Z,101869.77
2023-02-11T00:09:54.083Z,101854.56
2023-02-11T00:15:00.627Z,101855.25
2023-02-11T00:20:08.308Z,101850.35
2023-02-11T00:25:14.001Z,101844.64
2023-02-11T00:30:24.769Z,101845.73
2023-02-11T00:35:30.554Z,101834.92
2023-02-11T00:40:35.225Z,101834.86
2023-02-11T00:45:42.356Z,101827.63
2023-02-11T00:50:48.508Z,101836.98
2023-02-11T00:55:52.937Z,101824.55
2023-02-11T01:00:57.852Z,101815.70
2023-02-11T01:06:03.792Z,101807.90
2023-02-11T01:11:15.084Z,101805.02
2023-02-11T01:16:23.987Z,101800.48
2023-02-11T01:22:14.256Z,101788.68
2023-02-11T01:27:22.110Z,101770.73
2023-02-11T01:32:57.704Z,101761.40
2023-02-11T01:38:24.797Z,101755.75
2023-02-11T01:43:34.816Z,101748.36
2023-02-11T01:48:45.793Z,101732.30
2023-02-11T01:54:10.616Z,101725.13
2023-02-11T01:59:24.077Z,101709.17
2023-02-11T02:04:36.983Z,101715.62
2023-02-11T02:09:50.059Z,101700.64
2023-02-11T02:15:14.484Z,101697.29
2023-02-11T02:21:08.523Z,101684.42
2023-02-11T02:26:47.868Z,101672.33
2023-02-11T02:32:50.872Z,101665.25
2023-02-11T02:38:36.876Z,101658.02
2023-02-11T02:43:52.418Z,101638.98
2023-02-11T02:49:03.974Z,101640.28
2023-02-11T02:54:59.682Z,101625.71
2023-02-11T03:01:18.568Z,101618.30
2023-02-11T03:07:35.234Z,101611.02
2023-02-11T03:13:04.892Z,101600.43
2023-02-11T03:18:12.371Z,101606.64
2023-02-11T03:23:32.023Z,101605.79
2023-02-11T03:28:50.376Z,101614.97
2023-02-11T03:34:33.112Z,101614.53
2023-02-11T03:40:02.747Z,101615.14
2023-02-11T03:45:21.530Z,101615.92
2023-02-11T03:50:28.679Z,101621.44
2023-02-11T03:55:40.914Z,101601.93
2023-02-11T04:00:45.776Z,101601.14
2023-02-11T04:05:59.693Z,101591.38
2023-02-11T04:11:47.864Z,101581.90
2023-02-11T04:16:54.253Z,101567.09
2023-02-11T04:22:06.344Z,101554.15
2023-02-11T04:27:34.147Z,101545.33
2023-02-11T04:32:51.379Z,101533.61
2023-02-11T04:37:59.140Z,101525.45
2023-02-11T04:43:05.214Z,101530.66
2023-02-11T04:48:19.292Z,101531.45
2023-02-11T04:53:26.632Z,101537.77
2023-02-11T04:58:33.161Z,101530.47
2023-02-11T05:03:55.294Z,101523.14
2023-02-11T05:09:20.248Z,101510.25
2023-02-11T05:14:28.126Z,101492.91
2023-02-11T05:19:46.904Z,101480.50
2023-02-11T05:24:51.432Z,101477.72
2023-02-11T05:29:59.655Z,101469.97
2023-02-11T05:35:39.636Z,101469.45
2023-02-11T05:40:44.816Z,101471.72
2023-02-11T05:45:50.642Z,101471.29
2023-02-11T05:50:58.269Z,101473.31
2023-02-11T05:56:33.087Z,101463.65
2023-02-11T06:03:01.467Z,101467.02
2023-02-11T06:08:43.981Z,101471.81
2023-02-11T06:14:17.741Z,101463.70
2023-02-11T06:19:24.598Z,101465.00
2023-02-11T06:24:51.306Z,101458.17
2023-02-11T06:30:01.701Z,101459.73
2023-02-11T06:35:12.137Z,101452.06
2023-02-11T06:40:17.274Z,101458.60
2023-02-11T06:45:25.464Z,101452.39
2023-02-11T06:51:22.304Z,101452.80
2023-02-11T06:57:49.290Z,101450.73
2023-02-11T07:03:39.810Z,101455.06
2023-02-11T07:09:16.807Z,101450.94
2023-02-11T07:14:41.825Z,101435.66
2023-02-11T07:20:08.028Z,101419.88
2023-02-11T07:25:45.834Z,101425.06
2023-02-11T07:30:50.752Z,101436.42
2023-02-11T07:36:10.948Z,101427.55
2023-02-11T07:41:37.650Z,101430.01
2023-02-11T07:47:27.315Z,101435.00
2023-02-11T07:53:41.454Z,101426.09
2023-02-11T08:00:03.919Z,101425.92
2023-02-11T08:06:33.221Z,101435.89
2023-02-11T08:12:58.328Z,101434.15
2023-02-11T08:19:01.914Z,101433.09
2023-02-11T08:24:09.410Z,101422.73
2023-02-11T08:29:27.145Z,101429.73
2023-02-11T08:34:31.438Z,101433.38
2023-02-11T08:39:40.521Z,101426.09
2023-02-11T08:44:56.269Z,101423.44
2023-02-11T08:51:05.012Z,101421.32
2023-02-11T08:56:52.717Z,101415.94
2023-02-11T09:02:05.232Z,101408.20
2023-02-11T09:07:46.477Z,101396.95
2023-02-11T09:13:33.690Z,101389.02
2023-02-11T09:19:10.771Z,101375.03
2023-02-11T09:24:43.891Z,101366.38
2023-02-11T09:30:30.547Z,101364.89
2023-02-11T09:36:27.156Z,101347.12
2023-02-11T09:42:34.225Z,101348.83
2023-02-11T09:48:00.152Z,101342.73
2023-02-11T09:53:49.194Z,101333.89
2023-02-11T09:59:21.018Z,101338.76
2023-02-11T10:05:34.625Z,101346.17
2023-02-11T10:11:59.703Z,101334.23
2023-02-11T10:18:18.807Z,101321.13
2023-02-11T10:23:44.855Z,101319.77
2023-02-11T10:28:56.681Z,101295.61
2023-02-11T10:34:29.683Z,101304.58
2023-02-11T10:40:20.984Z,101305.76
2023-02-11T10:48:18.963Z,101298.54
2023-02-11T11:00:19.499Z,101296.48
2023-02-11T11:06:17.485Z,101299.16
2023-02-11T11:11:52.360Z,101297.65
2023-02-11T11:16:57.647Z,101301.17
2023-02-11T11:22:59.484Z,101295.15
2023-02-11T11:28:29.966Z,101289.59
2023-02-11T11:33:38.624Z,101293.35
2023-02-11T11:39:16.809Z,101290.18
2023-02-11T11:45:18.798Z,101275.20
2023-02-11T11:51:41.018Z,101293.77
2023-02-11T11:57:36.068Z,101285.35
2023-02-11T12:04:08.237Z,101283.64
2023-02-11T12:10:22.978Z,101259.75
2023-02-11T12:16:27.348Z,101256.48
2023-02-11T12:22:40.856Z,101245.89
2023-02-11T12:27:54.645Z,101237.95
2023-02-11T12:34:04.656Z,101244.45
2023-02-11T12:39:54.990Z,101236.74
2023-02-11T12:47:33.521Z,101207.79
2023-02-11T12:53:31.381Z,101213.25
2023-02-11T12:58:45.415Z,101229.63
2023-02-11T13:04:19.221Z,101225.54
2023-02-11T13:15:55.717Z,101219.86
2023-02-11T13:28:19.950Z,101227.52
2023-02-11T13:34:21.664Z,101225.17
2023-02-11T13:46:37.111Z,101208.30
2023-02-11T13:52:45.043Z,101212.73
2023-02-11T13:59:15.357Z,101212.50
2023-02-11T14:05:45.098Z,101204.02
2023-02-11T14:12:28.231Z,101211.84
2023-02-11T14:19:02.171Z,101231.29
2023-02-11T14:25:31.342Z,101244.65
2023-02-11T14:32:15.295Z,101251.88
2023-02-11T14:39:00.273Z,101257.52
2023-02-11T14:45:16.744Z,101272.98
2023-02-11T14:51:46.527Z,101271.83
2023-02-11T14:58:17.322Z,101280.31
2023-02-11T15:04:46.715Z,101281.80
2023-02-11T15:11:06.345Z,101284.59
2023-02-11T15:17:35.217Z,101277.98
2023-02-11T15:24:02.675Z,101277.63
2023-02-11T15:30:32.373Z,101286.59
2023-02-11T15:36:58.651Z,101290.97
2023-02-11T15:43:27.544Z,101292.19
2023-02-11T15:49:55.535Z,101306.10
2023-02-11T15:56:07.879Z,101315.42
2023-02-11T16:02:38.487Z,101322.88
2023-02-11T16:09:04.506Z,101318.10
2023-02-11T16:15:45.125Z,101320.36
2023-02-11T16:22:15.261Z,101319.61
2023-02-11T16:28:44.081Z,101325.75
2023-02-11T16:35:21.694Z,101329.72
2023-02-11T16:41:31.553Z,101330.05
2023-02-11T16:48:01.747Z,101339.15
2023-02-11T16:54:27.484Z,101353.76
2023-02-11T17:00:57.322Z,101367.90
2023-02-11T17:07:18.130Z,101381.29
2023-02-11T17:13:41.111Z,101384.88
2023-02-11T17:20:07.435Z,101400.09
2023-02-11T17:26:37.362Z,101416.48
2023-02-11T17:33:04.913Z,101417.58
2023-02-11T17:39:27.318Z,101424.68
2023-02-11T17:52:38.344Z,101432.70
2023-02-11T17:59:05.566Z,101443.11
2023-02-11T18:05:33.273Z,101434.99
2023-02-11T18:12:03.421Z,101431.63
2023-02-11T18:18:13.670Z,101431.54
2023-02-11T18:30:48.477Z,101446.08
2023-02-11T18:37:19.980Z,101440.83
2023-02-11T18:43:39.979Z,101446.24
2023-02-11T18:49:37.804Z,101447.70
2023-02-11T18:56:12.167Z,101456.24
2023-02-11T19:02:43.066Z,101462.86
2023-02-11T19:09:16.120Z,101477.95
2023-02-11T19:15:46.687Z,101483.13
2023-02-11T19:22:13.857Z,101489.79
2023-02-11T19:28:44.718Z,101502.27
2023-02-11T19:34:21.817Z,101505.64
2023-02-11T19:40:50.680Z,101503.70
2023-02-11T19:47:21.849Z,101508.24
2023-02-11T19:53:54.519Z,101515.73
2023-02-11T20:00:17.118Z,101514.10
2023-02-11T20:06:49.088Z,101511.20
2023-02-11T20:20:13.404Z,101534.73
2023-02-11T20:26:17.550Z,101543.79
2023-02-11T20:32:45.812Z,101549.30
2023-02-11T20:39:14.925Z,101555.45
2023-02-11T20:45:44.814Z,101562.06
2023-02-11T20:52:12.619Z,101566.34
2023-02-11T20:58:51.438Z,101568.02
2023-02-11T21:05:23.564Z,101580.27
2023-02-11T21:11:52.263Z,101595.34
2023-02-11T21:18:19.492Z,101610.25
2023-02-11T21:24:39.911Z,101623.33
2023-02-11T21:31:08.374Z,101625.57
2023-02-11T21:37:39.625Z,101629.48
2023-02-11T21:44:06.114Z,101635.05
2023-02-11T21:50:39.004Z,101644.91
2023-02-11T21:57:04.260Z,101645.59
2023-02-11T22:03:28.662Z,101658.06
2023-02-11T22:10:29.441Z,101672.80
2023-02-11T22:16:58.703Z,101675.31
2023-02-11T22:23:17.547Z,101688.41
2023-02-11T22:29:44.490Z,101703.67
2023-02-11T22:35:57.473Z,101704.06
2023-02-11T22:42:24.052Z,101713.67
2023-02-11T22:48:48.164Z,101722.77
2023-02-11T22:55:13.332Z,101724.98
2023-02-11T23:01:13.953Z,101725.13
2023-02-11T23:07:31.840Z,101725.77
2023-02-11T23:13:40.274Z,101732.05
2023-02-11T23:20:04.997Z,101730.69
2023-02-11T23:26:15.076Z,101738.73
2023-02-11T23:32:40.375Z,101738.80
2023-02-11T23:39:08.901Z,101749.43
2023-02-11T23:45:28.568Z,101755.23
2023-02-11T23:51:54.751Z,101762.41
2023-02-11T23:58:00.449Z,101769.75
